createdAt,value
2022-11-02T00:00:00.716Z,10.84
2022-11-02T00:01:00.688Z,10.88
2022-11-02T00:02:00.805Z,10.89
2022-11-02T00:03:00.727Z,10.92
2022-11-02T00:04:00.642Z,10.96
2022-11-02T00:05:00.635Z,10.97
2022-11-02T00:06:00.624Z,11.00
2022-11-02T00:07:00.621Z,11.00
2022-11-02T00:08:00.635Z,11.02
2022-11-02T00:09:00.579Z,11.02
2022-11-02T00:10:00.574Z,11.03
2022-11-02T00:11:00.548Z,11.04
2022-11-02T00:12:00.554Z,11.04
2022-11-02T00:13:00.541Z,11.03
2022-11-02T00:14:00.509Z,11.04
2022-11-02T00:15:00.535Z,11.03
2022-11-02T00:16:00.480Z,11.04
2022-11-02T00:17:00.478Z,11.04
2022-11-02T00:18:00.554Z,11.06
2022-11-02T00:19:00.445Z,11.04
2022-11-02T00:20:00.434Z,11.04
2022-11-02T00:21:00.417Z,11.04
2022-11-02T00:22:00.414Z,11.06
2022-11-02T00:23:00.583Z,11.04
2022-11-02T00:24:00.377Z,11.03
2022-11-02T00:25:00.365Z,11.06
2022-11-02T00:26:02.383Z,11.03
2022-11-02T00:27:00.358Z,11.03
2022-11-02T00:28:00.325Z,11.03
2022-11-02T00:29:00.299Z,11.04
2022-11-02T00:30:00.305Z,11.04
2022-11-02T00:31:00.295Z,11.04
2022-11-02T00:32:00.291Z,11.00
2022-11-02T00:33:00.326Z,11.00
2022-11-02T00:34:00.232Z,11.00
2022-11-02T00:35:00.231Z,11.03
2022-11-02T00:36:00.232Z,11.02
2022-11-02T00:37:00.229Z,11.03
2022-11-02T00:38:00.275Z,11.04
2022-11-02T00:39:00.166Z,11.03
2022-11-02T00:40:00.186Z,11.04
2022-11-02T00:41:00.173Z,11.03
2022-11-02T00:42:00.127Z,11.02
2022-11-02T00:43:00.135Z,11.03
2022-11-02T00:44:00.111Z,11.02
2022-11-02T00:45:00.093Z,11.02
2022-11-02T00:46:00.109Z,11.00
2022-11-02T00:47:00.098Z,11.00
2022-11-02T00:48:00.058Z,11.04
2022-11-02T00:49:00.042Z,11.03
2022-11-02T00:50:00.017Z,11.07
2022-11-02T00:51:00.040Z,11.07
2022-11-02T00:52:00.003Z,11.07
2022-11-02T00:53:00.019Z,11.09
2022-11-02T00:53:59.985Z,11.09
2022-11-02T00:54:59.959Z,11.10
2022-11-02T00:55:59.948Z,11.11
2022-11-02T00:57:59.939Z,11.15
2022-11-02T00:58:59.941Z,11.15
2022-11-02T00:59:59.895Z,11.15
2022-11-02T01:00:59.948Z,11.18
2022-11-02T01:02:00.159Z,11.19
2022-11-02T01:02:59.897Z,11.21
2022-11-02T01:03:59.880Z,11.24
2022-11-02T01:04:59.834Z,11.25
2022-11-02T01:05:59.806Z,11.28
2022-11-02T01:06:59.799Z,11.32
2022-11-02T01:07:59.799Z,11.35
2022-11-02T01:08:59.798Z,11.35
2022-11-02T01:09:59.771Z,11.36
2022-11-02T01:10:59.738Z,11.39
2022-11-02T01:11:59.740Z,11.40
2022-11-02T01:12:59.727Z,11.43
2022-11-02T01:13:59.751Z,11.44
2022-11-02T01:14:59.701Z,11.46
2022-11-02T01:15:59.672Z,11.49
2022-11-02T01:16:59.662Z,11.51
2022-11-02T01:17:59.651Z,11.49
2022-11-02T01:18:59.661Z,11.51
2022-11-02T01:19:59.626Z,11.52
2022-11-02T01:20:59.613Z,11.51
2022-11-02T01:21:59.592Z,11.49
2022-11-02T01:22:59.594Z,11.49
2022-11-02T01:23:59.595Z,11.51
2022-11-02T01:24:59.568Z,11.51
2022-11-02T01:25:59.541Z,11.51
2022-11-02T01:26:59.524Z,11.49
2022-11-02T01:27:59.533Z,11.51
2022-11-02T01:28:59.524Z,11.51
2022-11-02T01:29:59.508Z,11.51
2022-11-02T01:30:59.483Z,11.52
2022-11-02T01:31:59.484Z,11.52
2022-11-02T01:32:59.449Z,11.52
2022-11-02T01:33:59.454Z,11.54
2022-11-02T01:34:59.447Z,11.54
2022-11-02T01:35:59.430Z,11.54
2022-11-02T01:36:59.408Z,11.55
2022-11-02T01:37:59.388Z,11.58
2022-11-02T01:38:59.376Z,11.57
2022-11-02T01:39:59.356Z,11.60
2022-11-02T01:40:59.381Z,11.61
2022-11-02T01:41:59.337Z,11.61
2022-11-02T01:42:59.313Z,11.62
2022-11-02T01:43:59.319Z,11.67
2022-11-02T01:44:59.287Z,11.69
2022-11-02T01:45:59.271Z,11.70
2022-11-02T01:46:59.272Z,11.73
2022-11-02T01:47:59.241Z,11.75
2022-11-02T01:48:59.257Z,11.79
2022-11-02T01:49:59.221Z,11.80
2022-11-02T01:50:59.226Z,11.83
2022-11-02T01:51:59.191Z,11.86
2022-11-02T01:52:59.189Z,11.90
2022-11-02T01:53:59.183Z,11.94
2022-11-02T01:54:59.166Z,11.96
2022-11-02T01:55:59.135Z,11.98
2022-11-02T01:56:59.134Z,11.99
2022-11-02T01:57:59.106Z,11.99
2022-11-02T01:58:59.137Z,11.99
2022-11-02T01:59:59.088Z,11.98
2022-11-02T02:00:59.101Z,11.98
2022-11-02T02:01:59.172Z,11.96
2022-11-02T02:02:59.089Z,11.96
2022-11-02T02:03:59.042Z,11.95
2022-11-02T02:04:59.046Z,11.95
2022-11-02T02:05:59.011Z,11.90
2022-11-02T02:06:59.012Z,11.91
2022-11-02T02:07:58.975Z,11.88
2022-11-02T02:08:58.997Z,11.86
2022-11-02T02:09:58.979Z,11.86
2022-11-02T02:10:58.962Z,11.85
2022-11-02T02:11:58.923Z,11.85
2022-11-02T02:12:58.937Z,11.83
2022-11-02T02:13:58.897Z,11.83
2022-11-02T02:14:58.893Z,11.80
2022-11-02T02:15:58.884Z,11.80
2022-11-02T02:16:58.861Z,11.80
2022-11-02T02:17:58.854Z,11.80
2022-11-02T02:18:58.842Z,11.78
2022-11-02T02:19:58.803Z,11.79
2022-11-02T02:20:58.831Z,11.78
2022-11-02T02:21:58.782Z,11.76
2022-11-02T02:22:58.770Z,11.78
2022-11-02T02:23:58.761Z,11.78
2022-11-02T02:24:58.751Z,11.78
2022-11-02T02:25:58.760Z,11.78
2022-11-02T02:26:58.720Z,11.78
2022-11-02T02:27:58.709Z,11.78
2022-11-02T02:28:58.700Z,11.78
2022-11-02T02:29:58.685Z,11.76
2022-11-02T02:30:58.679Z,11.79
2022-11-02T02:31:58.683Z,11.78
2022-11-02T02:32:58.641Z,11.78
2022-11-02T02:33:58.634Z,11.78
2022-11-02T02:34:58.612Z,11.79
2022-11-02T02:35:58.591Z,11.79
2022-11-02T02:36:58.620Z,11.79
2022-11-02T02:37:58.584Z,11.80
2022-11-02T02:38:58.575Z,11.80
2022-11-02T02:39:58.580Z,11.82
2022-11-02T02:40:58.533Z,11.82
2022-11-02T02:41:58.540Z,11.83
2022-11-02T02:42:58.505Z,11.83
2022-11-02T02:43:58.504Z,11.83
2022-11-02T02:44:58.473Z,11.85
2022-11-02T02:45:58.463Z,11.83
2022-11-02T02:46:58.484Z,11.83
2022-11-02T02:47:58.434Z,11.82
2022-11-02T02:48:58.439Z,11.80
2022-11-02T02:49:58.423Z,11.82
2022-11-02T02:50:58.411Z,11.80
2022-11-02T02:51:58.413Z,11.80
2022-11-02T02:52:58.389Z,11.82
2022-11-02T02:53:58.375Z,11.82
2022-11-02T02:54:58.352Z,11.80
2022-11-02T02:55:58.361Z,11.79
2022-11-02T02:56:58.324Z,11.79
2022-11-02T02:57:58.307Z,11.78
2022-11-02T02:58:58.305Z,11.76
2022-11-02T02:59:58.268Z,11.78
2022-11-02T03:00:58.292Z,11.76
2022-11-02T03:01:58.367Z,11.76
2022-11-02T03:02:58.265Z,11.76
2022-11-02T03:03:58.223Z,11.76
2022-11-02T03:04:58.228Z,11.76
2022-11-02T03:05:58.189Z,11.76
2022-11-02T03:06:58.228Z,11.75
2022-11-02T03:07:58.168Z,11.76
2022-11-02T03:08:58.164Z,11.73
2022-11-02T03:09:58.130Z,11.73
2022-11-02T03:10:58.136Z,11.73
2022-11-02T03:11:58.137Z,11.73
2022-11-02T03:12:58.105Z,11.72
2022-11-02T03:13:58.079Z,11.72
2022-11-02T03:14:58.071Z,11.73
2022-11-02T03:15:58.091Z,11.75
2022-11-02T03:17:58.077Z,11.78
2022-11-02T03:18:58.023Z,11.82
2022-11-02T03:19:58.022Z,11.82
2022-11-02T03:20:58.017Z,11.85
2022-11-02T03:21:57.984Z,11.88
2022-11-02T03:22:57.965Z,11.90
2022-11-02T03:23:57.953Z,11.94
2022-11-02T03:24:57.939Z,11.95
2022-11-02T03:25:57.932Z,11.96
2022-11-02T03:26:57.939Z,11.98
2022-11-02T03:27:57.905Z,11.99
2022-11-02T03:28:57.872Z,11.99
2022-11-02T03:29:57.866Z,11.99
2022-11-02T03:30:57.848Z,12.02
2022-11-02T03:31:57.872Z,12.04
2022-11-02T03:32:57.824Z,12.05
2022-11-02T03:33:57.824Z,12.07
2022-11-02T03:34:57.824Z,12.05
2022-11-02T03:35:57.792Z,12.05
2022-11-02T03:36:57.886Z,12.07
2022-11-02T03:37:57.794Z,12.07
2022-11-02T03:38:57.741Z,12.07
2022-11-02T03:39:57.760Z,12.09
2022-11-02T03:40:57.728Z,12.09
2022-11-02T03:41:57.730Z,12.10
2022-11-02T03:42:57.696Z,12.12
2022-11-02T03:43:57.680Z,12.12
2022-11-02T03:44:57.699Z,12.10
2022-11-02T03:45:57.667Z,12.10
2022-11-02T03:46:57.683Z,12.10
2022-11-02T03:47:57.623Z,12.10
2022-11-02T03:48:57.628Z,12.09
2022-11-02T03:49:57.617Z,12.09
2022-11-02T03:50:57.609Z,12.07
2022-11-02T03:51:57.585Z,12.05
2022-11-02T03:52:57.555Z,12.04
2022-11-02T03:53:57.541Z,12.02
2022-11-02T03:54:57.545Z,12.02
2022-11-02T03:55:57.522Z,12.01
2022-11-02T03:56:57.582Z,12.02
2022-11-02T03:57:57.487Z,12.01
2022-11-02T03:58:57.512Z,12.01
2022-11-02T03:59:57.467Z,12.01
2022-11-02T04:00:57.460Z,12.01
2022-11-02T04:01:57.562Z,12.01
2022-11-02T04:02:57.427Z,11.99
2022-11-02T04:03:57.422Z,12.01
2022-11-02T04:04:57.451Z,11.99
2022-11-02T04:05:57.397Z,11.99
2022-11-02T04:06:57.397Z,11.98
2022-11-02T04:07:59.493Z,11.99
2022-11-02T04:08:57.350Z,11.96
2022-11-02T04:09:57.349Z,11.99
2022-11-02T04:10:57.330Z,11.99
2022-11-02T04:11:57.316Z,11.99
2022-11-02T04:12:57.311Z,11.99
2022-11-02T04:13:57.292Z,11.98
2022-11-02T04:14:57.289Z,12.01
2022-11-02T04:15:57.255Z,12.01
2022-11-02T04:16:57.274Z,11.99
2022-11-02T04:17:57.244Z,12.01
2022-11-02T04:18:57.229Z,12.01
2022-11-02T04:19:57.217Z,12.02
2022-11-02T04:20:57.222Z,12.02
2022-11-02T04:21:57.173Z,12.02
2022-11-02T04:22:57.182Z,12.02
2022-11-02T04:23:57.140Z,12.02
2022-11-02T04:24:57.159Z,12.02
2022-11-02T04:25:57.144Z,12.01
2022-11-02T04:26:57.093Z,12.01
2022-11-02T04:27:57.114Z,12.01
2022-11-02T04:28:57.085Z,12.02
2022-11-02T04:29:57.099Z,12.02
2022-11-02T04:30:57.047Z,12.04
2022-11-02T04:31:57.032Z,12.05
2022-11-02T04:32:57.016Z,12.07
2022-11-02T04:33:57.037Z,12.10
2022-11-02T04:34:57.063Z,12.09
2022-11-02T04:35:56.986Z,12.10
2022-11-02T04:36:56.958Z,12.12
2022-11-02T04:37:56.963Z,12.16
2022-11-02T04:38:56.938Z,12.21
2022-11-02T04:39:56.925Z,12.27
2022-11-02T04:40:56.936Z,12.28
2022-11-02T04:41:56.890Z,12.32
2022-11-02T04:42:56.880Z,12.35
2022-11-02T04:43:56.928Z,12.38
2022-11-02T04:44:56.868Z,12.41
2022-11-02T04:45:56.861Z,12.41
2022-11-02T04:46:56.851Z,12.42
2022-11-02T04:47:56.815Z,12.39
2022-11-02T04:48:56.801Z,12.41
2022-11-02T04:49:56.798Z,12.38
2022-11-02T04:50:56.804Z,12.38
2022-11-02T04:51:56.765Z,12.37
2022-11-02T04:52:56.755Z,12.37
2022-11-02T04:53:56.761Z,12.35
2022-11-02T04:54:56.728Z,12.34
2022-11-02T04:55:56.746Z,12.32
2022-11-02T04:56:56.703Z,12.29
2022-11-02T04:57:56.768Z,12.29
2022-11-02T04:58:56.660Z,12.29
2022-11-02T04:59:56.664Z,12.28
2022-11-02T05:00:56.643Z,12.28
2022-11-02T05:01:56.797Z,12.28
2022-11-02T05:02:56.682Z,12.28
2022-11-02T05:03:56.601Z,12.28
2022-11-02T05:04:56.587Z,12.27
2022-11-02T05:05:56.582Z,12.28
2022-11-02T05:07:01.225Z,12.28
2022-11-02T05:07:56.571Z,12.29
2022-11-02T05:08:56.554Z,12.28
2022-11-02T05:09:56.516Z,12.28
2022-11-02T05:10:56.509Z,12.28
2022-11-02T05:11:56.532Z,12.29
2022-11-02T05:12:56.481Z,12.32
2022-11-02T05:13:56.484Z,12.32
2022-11-02T05:14:56.467Z,12.34
2022-11-02T05:15:56.443Z,12.34
2022-11-02T05:16:56.445Z,12.37
2022-11-02T05:17:56.485Z,12.37
2022-11-02T05:18:56.395Z,12.37
2022-11-02T05:19:56.391Z,12.35
2022-11-02T05:20:56.358Z,12.38
2022-11-02T05:21:56.359Z,12.39
2022-11-02T05:22:56.356Z,12.39
2022-11-02T05:23:56.328Z,12.41
2022-11-02T05:24:56.318Z,12.39
2022-11-02T05:25:56.318Z,12.38
2022-11-02T05:26:56.294Z,12.35
2022-11-02T05:27:56.296Z,12.34
2022-11-02T05:28:56.261Z,12.34
2022-11-02T05:29:56.263Z,12.31
2022-11-02T05:30:56.268Z,12.29
2022-11-02T05:31:56.230Z,12.27
2022-11-02T05:32:56.252Z,12.24
2022-11-02T05:33:56.215Z,12.21
2022-11-02T05:34:56.193Z,12.23
2022-11-02T05:35:56.163Z,12.23
2022-11-02T05:36:56.176Z,12.21
2022-11-02T05:37:56.170Z,12.21
2022-11-02T05:38:56.140Z,12.21
2022-11-02T05:39:56.126Z,12.23
2022-11-02T05:40:56.184Z,12.23
2022-11-02T05:41:56.090Z,12.23
2022-11-02T05:42:56.114Z,12.24
2022-11-02T05:43:56.125Z,12.24
2022-11-02T05:44:56.058Z,12.28
2022-11-02T05:45:56.051Z,12.28
2022-11-02T05:46:56.043Z,12.28
2022-11-02T05:47:56.045Z,12.28
2022-11-02T05:48:55.996Z,12.28
2022-11-02T05:49:55.979Z,12.27
2022-11-02T05:50:55.995Z,12.23
2022-11-02T05:51:55.970Z,12.24
2022-11-02T05:52:55.949Z,12.24
2022-11-02T05:53:55.957Z,12.23
2022-11-02T05:54:55.936Z,12.20
2022-11-02T05:55:55.898Z,12.21
2022-11-02T05:56:55.896Z,12.19
2022-11-02T05:57:55.866Z,12.17
2022-11-02T05:58:55.874Z,12.17
2022-11-02T05:59:55.862Z,12.17
2022-11-02T06:00:55.905Z,12.16
2022-11-02T06:01:55.906Z,12.14
2022-11-02T06:02:55.804Z,12.14
2022-11-02T06:03:55.802Z,12.12
2022-11-02T06:04:55.843Z,12.12
2022-11-02T06:05:55.805Z,12.10
2022-11-02T06:06:55.792Z,12.09
2022-11-02T06:07:55.805Z,12.09
2022-11-02T06:08:55.724Z,12.05
2022-11-02T06:09:55.716Z,12.02
2022-11-02T06:10:55.699Z,12.02
2022-11-02T06:11:55.706Z,12.01
2022-11-02T06:12:55.684Z,11.99
2022-11-02T06:13:55.676Z,11.99
2022-11-02T06:14:55.633Z,11.99
2022-11-02T06:15:55.631Z,11.96
2022-11-02T06:16:55.652Z,11.98
2022-11-02T06:17:55.620Z,11.98
2022-11-02T06:18:55.583Z,11.98
2022-11-02T06:19:55.592Z,11.98
2022-11-02T06:20:55.577Z,11.96
2022-11-02T06:21:55.565Z,11.98
2022-11-02T06:22:55.554Z,11.96
2022-11-02T06:23:55.520Z,11.96
2022-11-02T06:24:55.541Z,11.95
2022-11-02T06:25:55.487Z,11.94
2022-11-02T06:26:55.478Z,11.95
2022-11-02T06:27:55.472Z,11.95
2022-11-02T06:28:55.490Z,11.94
2022-11-02T06:29:55.468Z,11.91
2022-11-02T06:30:55.420Z,11.91
2022-11-02T06:31:55.446Z,11.91
2022-11-02T06:32:55.387Z,11.91
2022-11-02T06:33:55.395Z,11.88
2022-11-02T06:34:55.378Z,11.86
2022-11-02T06:35:55.368Z,11.85
2022-11-02T06:36:55.343Z,11.85
2022-11-02T06:37:55.378Z,11.85
2022-11-02T06:38:55.339Z,11.86
2022-11-02T06:39:55.315Z,11.83
2022-11-02T06:40:55.295Z,11.85
2022-11-02T06:41:55.313Z,11.83
2022-11-02T06:43:10.847Z,11.83
2022-11-02T06:43:55.253Z,11.80
2022-11-02T06:44:55.519Z,11.80
2022-11-02T06:45:55.271Z,11.80
2022-11-02T06:46:55.237Z,11.80
2022-11-02T06:47:55.198Z,11.82
2022-11-02T06:48:55.210Z,11.82
2022-11-02T06:49:55.178Z,11.82
2022-11-02T06:50:55.176Z,11.82
2022-11-02T06:51:55.153Z,11.83
2022-11-02T06:52:55.133Z,11.85
2022-11-02T06:53:55.114Z,11.85
2022-11-02T06:54:55.111Z,11.85
2022-11-02T06:55:55.093Z,11.85
2022-11-02T06:56:55.110Z,11.86
2022-11-02T06:57:55.065Z,11.88
2022-11-02T06:58:55.047Z,11.88
2022-11-02T06:59:55.108Z,11.88
2022-11-02T07:00:55.165Z,11.88
2022-11-02T07:01:55.234Z,11.88
2022-11-02T07:02:55.023Z,11.88
2022-11-02T07:03:55.000Z,11.88
2022-11-02T07:04:54.956Z,11.91
2022-11-02T07:05:55.009Z,11.95
2022-11-02T07:06:54.956Z,11.95
2022-11-02T07:07:54.927Z,11.98
2022-11-02T07:08:54.903Z,11.99
2022-11-02T07:09:54.932Z,12.04
2022-11-02T07:10:54.903Z,12.04
2022-11-02T07:11:54.892Z,12.05
2022-11-02T07:12:54.858Z,12.10
2022-11-02T07:13:54.842Z,12.12
2022-11-02T07:14:54.825Z,12.13
2022-11-02T07:15:54.878Z,12.16
2022-11-02T07:16:54.801Z,12.20
2022-11-02T07:17:54.798Z,12.20
2022-11-02T07:18:54.779Z,12.24
2022-11-02T07:19:54.767Z,12.24
2022-11-02T07:20:54.774Z,12.27
2022-11-02T07:21:54.744Z,12.27
2022-11-02T07:22:54.736Z,12.28
2022-11-02T07:23:54.733Z,12.28
2022-11-02T07:24:54.697Z,12.28
2022-11-02T07:25:54.675Z,12.31
2022-11-02T07:26:54.678Z,12.32
2022-11-02T07:27:54.647Z,12.31
2022-11-02T07:28:58.266Z,12.32
2022-11-02T07:29:54.619Z,12.34
2022-11-02T07:30:54.624Z,12.32
2022-11-02T07:31:54.695Z,12.32
2022-11-02T07:32:54.592Z,12.32
2022-11-02T07:33:54.581Z,12.32
2022-11-02T07:34:54.574Z,12.31
2022-11-02T07:35:54.555Z,12.31
2022-11-02T07:36:54.552Z,12.32
2022-11-02T07:37:54.553Z,12.32
2022-11-02T07:38:54.527Z,12.34
2022-11-02T07:39:54.499Z,12.32
2022-11-02T07:40:54.482Z,12.34
2022-11-02T07:41:54.501Z,12.35
2022-11-02T07:42:54.463Z,12.35
2022-11-02T07:43:54.537Z,12.35
2022-11-02T07:44:54.469Z,12.37
2022-11-02T07:45:54.423Z,12.37
2022-11-02T07:46:54.393Z,12.38
2022-11-02T07:47:54.399Z,12.37
2022-11-02T07:48:54.419Z,12.39
2022-11-02T07:49:54.514Z,12.39
2022-11-02T07:50:54.365Z,12.42
2022-11-02T07:51:54.351Z,12.42
2022-11-02T07:52:54.345Z,12.46
2022-11-02T07:53:54.312Z,12.46
2022-11-02T07:54:54.329Z,12.46
2022-11-02T07:55:54.304Z,12.47
2022-11-02T07:56:54.261Z,12.49
2022-11-02T07:57:54.347Z,12.49
2022-11-02T07:58:54.257Z,12.52
2022-11-02T07:59:54.671Z,12.52
2022-11-02T08:00:59.513Z,12.53
2022-11-02T08:01:54.242Z,12.56
2022-11-02T08:02:54.208Z,12.57
2022-11-02T08:03:54.239Z,12.59
2022-11-02T08:04:54.169Z,12.60
2022-11-02T08:05:54.160Z,12.60
2022-11-02T08:06:54.181Z,12.62
2022-11-02T08:07:54.113Z,12.64
2022-11-02T08:08:54.153Z,12.64
2022-11-02T08:09:54.115Z,12.64
2022-11-02T08:10:54.092Z,12.64
2022-11-02T08:11:54.083Z,12.65
2022-11-02T08:12:54.050Z,12.64
2022-11-02T08:13:54.388Z,12.68
2022-11-02T08:14:54.031Z,12.67
2022-11-02T08:15:54.056Z,12.70
2022-11-02T08:16:53.994Z,12.68
2022-11-02T08:17:53.978Z,12.71
2022-11-02T08:18:53.991Z,12.72
2022-11-02T08:19:53.962Z,12.70
2022-11-02T08:20:56.248Z,12.71
2022-11-02T08:21:53.984Z,12.71
2022-11-02T08:22:53.924Z,12.72
2022-11-02T08:23:58.338Z,12.74
2022-11-02T08:24:53.899Z,12.75
2022-11-02T08:25:53.880Z,12.75
2022-11-02T08:26:54.941Z,12.78
2022-11-02T08:27:53.878Z,12.79
2022-11-02T08:28:53.838Z,12.83
2022-11-02T08:29:53.826Z,12.85
2022-11-02T08:30:53.825Z,12.89
2022-11-02T08:31:53.809Z,12.90
2022-11-02T08:32:56.868Z,12.93
2022-11-02T08:33:53.753Z,12.97
2022-11-02T08:34:53.752Z,13.01
2022-11-02T08:35:53.784Z,13.04
2022-11-02T08:36:53.745Z,13.08
2022-11-02T08:37:53.708Z,13.11
2022-11-02T08:38:53.691Z,13.11
2022-11-02T08:39:53.685Z,13.14
2022-11-02T08:40:53.701Z,13.14
2022-11-02T08:41:53.654Z,13.14
2022-11-02T08:42:53.652Z,13.14
2022-11-02T08:43:53.676Z,13.15
2022-11-02T08:44:53.642Z,13.19
2022-11-02T08:46:13.847Z,13.20
2022-11-02T08:47:53.582Z,13.25
2022-11-02T08:48:53.586Z,13.26
2022-11-02T08:49:53.545Z,13.30
2022-11-02T08:50:53.556Z,13.38
2022-11-02T08:51:53.533Z,13.41
2022-11-02T08:52:53.514Z,13.44
2022-11-02T08:53:53.540Z,13.45
2022-11-02T08:54:53.497Z,13.48
2022-11-02T08:55:53.471Z,13.52
2022-11-02T08:56:53.460Z,13.55
2022-11-02T08:57:53.458Z,13.60
2022-11-02T08:58:53.452Z,13.62
2022-11-02T08:59:53.429Z,13.62
2022-11-02T09:00:53.400Z,13.62
2022-11-02T09:01:53.572Z,13.62
2022-11-02T09:02:53.483Z,13.57
2022-11-02T09:03:53.365Z,13.59
2022-11-02T09:04:53.382Z,13.60
2022-11-02T09:05:53.364Z,13.63
2022-11-02T09:06:53.343Z,13.64
2022-11-02T09:07:53.331Z,13.69
2022-11-02T09:08:56.348Z,13.67
2022-11-02T09:09:53.299Z,13.75
2022-11-02T09:10:53.272Z,13.82
2022-11-02T09:11:53.256Z,13.87
2022-11-02T09:12:53.250Z,13.87
2022-11-02T09:13:56.903Z,13.92
2022-11-02T09:14:53.209Z,14.02
2022-11-02T09:15:53.200Z,14.07
2022-11-02T09:16:53.194Z,14.12
2022-11-02T09:17:53.165Z,14.12
2022-11-02T09:18:53.205Z,14.15
2022-11-02T09:19:53.141Z,14.17
2022-11-02T09:20:53.139Z,14.17
2022-11-02T09:21:53.126Z,14.15
2022-11-02T09:22:53.154Z,14.12
2022-11-02T09:23:53.099Z,14.12
2022-11-02T09:24:53.118Z,14.14
2022-11-02T09:25:53.087Z,14.17
2022-11-02T09:26:53.081Z,14.21
2022-11-02T09:28:04.286Z,14.18
2022-11-02T09:28:53.060Z,14.17
2022-11-02T09:29:53.032Z,14.14
2022-11-02T09:30:53.034Z,14.20
2022-11-02T09:31:52.978Z,14.21
2022-11-02T09:32:52.977Z,14.27
2022-11-02T09:33:52.955Z,14.28
2022-11-02T09:34:52.986Z,14.29
2022-11-02T09:35:53.031Z,14.25
2022-11-02T09:36:52.985Z,14.27
2022-11-02T09:37:52.916Z,14.35
2022-11-02T09:38:52.897Z,14.40
2022-11-02T09:39:52.890Z,14.39
2022-11-02T09:40:52.896Z,14.45
2022-11-02T09:41:52.856Z,14.47
2022-11-02T09:42:52.890Z,14.58
2022-11-02T09:43:52.931Z,14.62
2022-11-02T09:44:52.829Z,14.61
2022-11-02T09:45:52.791Z,14.55
2022-11-02T09:47:28.100Z,14.54
2022-11-02T09:48:15.817Z,14.51
2022-11-02T09:48:52.834Z,14.55
2022-11-02T09:49:52.741Z,14.61
2022-11-02T09:50:54.312Z,14.61
2022-11-02T09:51:52.783Z,14.62
2022-11-02T09:52:52.709Z,14.60
2022-11-02T09:53:52.712Z,14.64
2022-11-02T09:54:52.764Z,14.62
2022-11-02T09:55:52.714Z,14.60
2022-11-02T09:56:52.675Z,14.57
2022-11-02T09:57:52.637Z,14.50
2022-11-02T09:58:52.630Z,14.39
2022-11-02T09:59:52.673Z,14.33
2022-11-02T10:00:52.609Z,14.28
2022-11-02T10:01:52.872Z,14.27
2022-11-02T10:02:52.657Z,14.28
2022-11-02T10:03:52.559Z,14.28
2022-11-02T10:04:52.581Z,14.32
2022-11-02T10:05:52.617Z,14.32
2022-11-02T10:06:52.558Z,14.29
2022-11-02T10:07:52.523Z,14.32
2022-11-02T10:08:52.497Z,14.35
2022-11-02T10:09:52.530Z,14.36
2022-11-02T10:10:52.479Z,14.33
2022-11-02T10:11:52.454Z,14.28
2022-11-02T10:12:52.463Z,14.24
2022-11-02T10:13:55.720Z,14.22
2022-11-02T10:14:52.438Z,14.24
2022-11-02T10:15:52.497Z,14.25
2022-11-02T10:16:52.404Z,14.25
2022-11-02T10:17:52.397Z,14.27
2022-11-02T10:18:52.359Z,14.25
2022-11-02T10:19:52.376Z,14.25
2022-11-02T10:20:52.373Z,14.24
2022-11-02T10:21:52.331Z,14.24
2022-11-02T10:22:52.851Z,14.24
2022-11-02T10:23:52.299Z,14.27
2022-11-02T10:24:52.286Z,14.29
2022-11-02T10:25:52.255Z,14.36
2022-11-02T10:26:52.311Z,14.39
2022-11-02T10:27:52.266Z,14.39
2022-11-02T10:28:52.274Z,14.43
2022-11-02T10:29:52.217Z,14.50
2022-11-02T10:30:52.205Z,14.52
2022-11-02T10:31:52.231Z,14.58
2022-11-02T10:32:52.183Z,14.68
2022-11-02T10:33:54.191Z,14.77
2022-11-02T10:34:59.293Z,14.86
2022-11-02T10:36:19.620Z,14.94
2022-11-02T10:36:52.138Z,15.01
2022-11-02T10:37:52.166Z,15.03
2022-11-02T10:38:52.107Z,14.99
2022-11-02T10:39:52.070Z,14.94
2022-11-02T10:40:52.067Z,14.88
2022-11-02T10:41:52.091Z,14.80
2022-11-02T10:42:52.078Z,14.73
2022-11-02T10:43:52.364Z,14.68
2022-11-02T10:44:52.020Z,14.62
2022-11-02T10:45:52.064Z,14.55
2022-11-02T10:46:52.017Z,14.51
2022-11-02T10:47:52.021Z,14.52
2022-11-02T10:48:51.989Z,14.52
2022-11-02T10:49:51.960Z,14.51
2022-11-02T10:50:51.922Z,14.51
2022-11-02T10:51:51.908Z,14.52
2022-11-02T10:52:51.953Z,14.57
2022-11-02T10:53:51.980Z,14.61
2022-11-02T10:54:51.912Z,14.68
2022-11-02T10:55:51.871Z,14.73
2022-11-02T10:56:51.885Z,14.80
2022-11-02T10:57:51.840Z,14.86
2022-11-02T10:58:51.868Z,14.94
2022-11-02T10:59:56.756Z,14.99
2022-11-02T11:00:51.842Z,15.06
2022-11-02T11:01:51.822Z,15.06
2022-11-02T11:02:51.784Z,15.11
2022-11-02T11:03:51.758Z,15.19
2022-11-02T11:04:51.743Z,15.25
2022-11-02T11:05:51.780Z,15.29
2022-11-02T11:06:51.717Z,15.27
2022-11-02T11:07:51.709Z,15.25
2022-11-02T11:08:51.711Z,15.25
2022-11-02T11:09:51.684Z,15.25
2022-11-02T11:10:51.680Z,15.20
2022-11-02T11:11:51.683Z,15.11
2022-11-02T11:12:51.652Z,15.03
2022-11-02T11:15:51.633Z,14.95
2022-11-02T11:16:51.658Z,14.94
2022-11-02T11:19:51.557Z,14.81
2022-11-02T11:20:51.546Z,14.77
2022-11-02T11:21:51.988Z,14.73
2022-11-02T11:22:51.513Z,14.70
2022-11-02T11:23:51.495Z,14.68
2022-11-02T11:24:51.495Z,14.64
2022-11-02T11:25:51.493Z,14.61
2022-11-02T11:26:51.461Z,14.60
2022-11-02T11:27:51.443Z,14.60
2022-11-02T11:28:51.437Z,14.58
2022-11-02T11:29:51.424Z,14.54
2022-11-02T11:30:59.928Z,14.51
2022-11-02T11:31:51.400Z,14.50
2022-11-02T11:32:51.395Z,14.46
2022-11-02T11:33:51.372Z,14.43
2022-11-02T11:34:51.363Z,14.43
2022-11-02T11:35:51.359Z,14.40
2022-11-02T11:36:51.415Z,14.40
2022-11-02T11:37:51.303Z,14.39
2022-11-02T11:38:51.299Z,14.39
2022-11-02T11:39:54.751Z,14.37
2022-11-02T11:40:51.300Z,14.37
2022-11-02T11:41:51.300Z,14.37
2022-11-02T11:42:51.252Z,14.39
2022-11-02T11:43:51.216Z,14.37
2022-11-02T11:44:51.269Z,14.40
2022-11-02T11:45:51.222Z,14.45
2022-11-02T11:46:51.218Z,14.50
2022-11-02T11:47:51.189Z,14.51
2022-11-02T11:48:51.181Z,14.54
2022-11-02T11:50:51.149Z,14.55
2022-11-02T11:51:51.142Z,14.57
2022-11-02T11:52:51.112Z,14.58
2022-11-02T11:53:51.127Z,14.58
2022-11-02T11:54:51.118Z,14.57
2022-11-02T11:55:51.082Z,14.55
2022-11-02T11:56:51.056Z,14.55
2022-11-02T11:57:51.055Z,14.54
2022-11-02T11:58:51.036Z,14.52
2022-11-02T11:59:51.018Z,14.52
2022-11-02T12:00:51.051Z,14.54
2022-11-02T12:01:51.055Z,14.52
2022-11-02T12:02:51.072Z,14.52
2022-11-02T12:03:50.965Z,14.54
2022-11-02T12:04:50.945Z,14.54
2022-11-02T12:05:50.987Z,14.55
2022-11-02T12:06:50.931Z,14.55
2022-11-02T12:08:04.828Z,14.57
2022-11-02T12:08:50.931Z,14.62
2022-11-02T12:09:50.900Z,14.68
2022-11-02T12:10:50.879Z,14.72
2022-11-02T12:11:50.980Z,14.78
2022-11-02T12:12:50.886Z,14.83
2022-11-02T12:13:50.826Z,14.88
2022-11-02T12:14:50.863Z,14.91
2022-11-02T12:15:50.840Z,14.92
2022-11-02T12:16:50.836Z,14.98
2022-11-02T12:17:50.780Z,14.99
2022-11-02T12:18:50.803Z,15.03
2022-11-02T12:19:50.747Z,15.07
2022-11-02T12:20:50.780Z,15.09
2022-11-02T12:21:50.732Z,15.14
2022-11-02T12:22:50.715Z,15.16
2022-11-02T12:23:50.710Z,15.20
2022-11-02T12:24:50.687Z,15.23
2022-11-02T12:25:50.710Z,15.28
2022-11-02T12:26:50.695Z,15.31
2022-11-02T12:27:50.658Z,15.34
2022-11-02T12:28:50.663Z,15.39
2022-11-02T12:29:50.626Z,15.41
2022-11-02T12:30:50.616Z,15.43
2022-11-02T12:31:50.615Z,15.43
2022-11-02T12:32:50.591Z,15.46
2022-11-02T12:33:50.584Z,15.46
2022-11-02T12:35:02.831Z,15.46
2022-11-02T12:35:51.461Z,15.49
2022-11-02T12:37:27.430Z,15.50
2022-11-02T12:37:50.520Z,15.54
2022-11-02T12:38:50.545Z,15.57
2022-11-02T12:39:50.485Z,15.59
2022-11-02T12:40:50.472Z,15.62
2022-11-02T12:41:50.494Z,15.64
2022-11-02T12:42:50.441Z,15.68
2022-11-02T12:43:50.433Z,15.68
2022-11-02T12:44:50.428Z,15.71
2022-11-02T12:45:50.396Z,15.71
2022-11-02T12:46:50.419Z,15.71
2022-11-02T12:47:50.389Z,15.72
2022-11-02T12:48:50.400Z,15.74
2022-11-02T12:49:50.367Z,15.76
2022-11-02T12:50:50.636Z,15.83
2022-11-02T12:51:50.356Z,15.89
2022-11-02T12:52:50.312Z,15.93
2022-11-02T12:53:50.300Z,15.97
2022-11-02T12:54:50.300Z,16.01
2022-11-02T12:55:50.267Z,16.04
2022-11-02T12:56:50.296Z,16.04
2022-11-02T12:57:50.277Z,16.02
2022-11-02T12:58:50.235Z,16.00
2022-11-02T12:59:50.264Z,16.00